Capt. Jack Green — WDE4207 — position and weather

sailwx.info

Track history (hours):
 
Tides and Currents Weather Stations Pressure Air Temp Water Temp Dewpoint Dewpoint Depression Visibility Wind Speed Wind Dir Waves Ship Positions

Capt. Jack Green

Owner: Blessey Enterprises, Inc., harahan, LA. More information available from US FCC via Universal Licensing System and Coast Guard Vessel Documentation Center.

Last reported at 2018-May-09 11:51 UTC. Time now 2018-May-20 17:55 UTC.
Position N 30°28' W 091°12'.
Warning: this ship's position is 11 days out of date.

Length 23 m; draft 3 m.

Type: Towing. MMSI: 367350170.

Date/timePositionNaut miles runAvg speedWind from/ knotsBaromVisibWave heightAir tempDewpointWater temp
2018-May-09 11:51N 30°28' W 091°12'0 0.0
2018-May-09 11:25N 30°28' W 091°12'0 0.8
2018-May-09 11:00N 30°28' W 091°12'  
2018-May-01 18:37N 29°34' W 090°31'1 5.2
2018-May-01 18:22N 29°34' W 090°32'2 5.0
2018-May-01 18:00N 29°34' W 090°34'2 4.9
2018-May-01 17:30N 29°35' W 090°37'2 3.7
2018-May-01 17:00N 29°36' W 090°39'2 4.5
2018-May-01 16:30N 29°36' W 090°41'1 2.6
2018-May-01 16:00N 29°36' W 090°43'2 3.4
2018-May-01 15:30N 29°34' W 090°43'2 3.4
2018-May-01 15:00N 29°34' W 090°45'1 1.8
2018-May-01 14:30N 29°33' W 090°45'0 0.0
2018-May-01 14:00N 29°33' W 090°45'0 0.0
2018-May-01 13:30N 29°33' W 090°45'0 0.0
2018-May-01 13:00N 29°33' W 090°45'0 0.1
2018-May-01 12:30N 29°33' W 090°45'1 1.7
2018-May-01 12:00N 29°32' W 090°46'2 3.9
2018-May-01 11:30N 29°32' W 090°48'106 3.2
2018-Apr-30 02:33N 29°58' W 092°47'14 4.2
2018-Apr-29 23:13N 29°56' W 093°03'1 4.5
2018-Apr-29 23:00N 29°56' W 093°04'2 4.3
2018-Apr-29 22:30N 29°56' W 093°06'2 4.3
2018-Apr-29 21:59N 29°56' W 093°09'2 4.2
2018-Apr-29 21:30N 29°57' W 093°11'2 4.4
2018-Apr-29 20:59N 29°59' W 093°12'2 4.3
2018-Apr-29 20:30N 30°01' W 093°14'2 3.2
2018-Apr-29 20:00N 30°02' W 093°15'1 2.8
2018-Apr-29 19:30N 30°03' W 093°16'2 4.0
2018-Apr-29 19:00N 30°05' W 093°17'1 2.4
2018-Apr-29 18:30N 30°06' W 093°18'1 1.0
2018-Apr-29 18:00N 30°06' W 093°18'1 1.1
2018-Apr-29 17:30N 30°06' W 093°19'1 1.5
2018-Apr-29 17:00N 30°05' W 093°20'2 3.6
2018-Apr-29 16:30N 30°04' W 093°21'2 3.4
2018-Apr-29 16:00N 30°04' W 093°23'3 5.1
2018-Apr-29 15:30N 30°04' W 093°26'3 5.0
2018-Apr-29 15:00N 30°04' W 093°29'2 5.0
2018-Apr-29 14:30N 30°04' W 093°31'2 4.9
2018-Apr-29 14:00N 30°04' W 093°34'3 5.1
2018-Apr-29 13:30N 30°03' W 093°37'3 5.5
2018-Apr-29 13:00N 30°04' W 093°40'3 5.2
2018-Apr-29 12:30N 30°03' W 093°43'2 4.9
2018-Apr-29 12:00N 30°01' W 093°45'  
Track history (hours):
 
Tides and Currents Weather Stations Pressure Air Temp Water Temp Dewpoint Dewpoint Depression Visibility Wind Speed Wind Dir Waves Ship Positions

Capt. Jack Green

Owner: Blessey Enterprises, Inc., harahan, LA. More information available from US FCC via Universal Licensing System and Coast Guard Vessel Documentation Center.

Last reported at 2018-May-09 11:51 UTC. Time now 2018-May-20 17:55 UTC.
Position N 30°28' W 091°12'.
Warning: this ship's position is 11 days out of date.

Length 23 m; draft 3 m.

Type: Towing. MMSI: 367350170.

Date/timePositionNaut miles runAvg speedWind from/ knotsBaromVisibWave heightAir tempDewpointWater temp
2018-May-09 11:51N 30°28' W 091°12'0 0.0
2018-May-09 11:25N 30°28' W 091°12'0 0.8
2018-May-09 11:00N 30°28' W 091°12'  
2018-May-01 18:37N 29°34' W 090°31'1 5.2
2018-May-01 18:22N 29°34' W 090°32'2 5.0
2018-May-01 18:00N 29°34' W 090°34'2 4.9
2018-May-01 17:30N 29°35' W 090°37'2 3.7
2018-May-01 17:00N 29°36' W 090°39'2 4.5
2018-May-01 16:30N 29°36' W 090°41'1 2.6
2018-May-01 16:00N 29°36' W 090°43'2 3.4
2018-May-01 15:30N 29°34' W 090°43'2 3.4
2018-May-01 15:00N 29°34' W 090°45'1 1.8
2018-May-01 14:30N 29°33' W 090°45'0 0.0
2018-May-01 14:00N 29°33' W 090°45'0 0.0
2018-May-01 13:30N 29°33' W 090°45'0 0.0
2018-May-01 13:00N 29°33' W 090°45'0 0.1
2018-May-01 12:30N 29°33' W 090°45'1 1.7
2018-May-01 12:00N 29°32' W 090°46'2 3.9
2018-May-01 11:30N 29°32' W 090°48'106 3.2
2018-Apr-30 02:33N 29°58' W 092°47'14 4.2
2018-Apr-29 23:13N 29°56' W 093°03'1 4.5
2018-Apr-29 23:00N 29°56' W 093°04'2 4.3
2018-Apr-29 22:30N 29°56' W 093°06'2 4.3
2018-Apr-29 21:59N 29°56' W 093°09'2 4.2
2018-Apr-29 21:30N 29°57' W 093°11'2 4.4
2018-Apr-29 20:59N 29°59' W 093°12'2 4.3
2018-Apr-29 20:30N 30°01' W 093°14'2 3.2
2018-Apr-29 20:00N 30°02' W 093°15'1 2.8
2018-Apr-29 19:30N 30°03' W 093°16'2 4.0
2018-Apr-29 19:00N 30°05' W 093°17'1 2.4
2018-Apr-29 18:30N 30°06' W 093°18'1 1.0
2018-Apr-29 18:00N 30°06' W 093°18'1 1.1
2018-Apr-29 17:30N 30°06' W 093°19'1 1.5
2018-Apr-29 17:00N 30°05' W 093°20'2 3.6
2018-Apr-29 16:30N 30°04' W 093°21'2 3.4
2018-Apr-29 16:00N 30°04' W 093°23'3 5.1
2018-Apr-29 15:30N 30°04' W 093°26'3 5.0
2018-Apr-29 15:00N 30°04' W 093°29'2 5.0
2018-Apr-29 14:30N 30°04' W 093°31'2 4.9
2018-Apr-29 14:00N 30°04' W 093°34'3 5.1
2018-Apr-29 13:30N 30°03' W 093°37'3 5.5
2018-Apr-29 13:00N 30°04' W 093°40'3 5.2
2018-Apr-29 12:30N 30°03' W 093°43'2 4.9
2018-Apr-29 12:00N 30°01' W 093°45'  

Dump ship's entire track history